sensor_id;sensor_type;location;lat;lon;timestamp;temperature;humidity
15937;DHT22;9163;48.818;8.976;2022-08-21T00:00:07;15.90;99.90
15937;DHT22;9163;48.818;8.976;2022-08-21T00:02:36;15.90;99.90
15937;DHT22;9163;48.818;8.976;2022-08-21T00:05:04;16.00;99.90
15937;DHT22;9163;48.818;8.976;2022-08-21T00:07:32;16.00;99.90
15937;DHT22;9163;48.818;8.976;2022-08-21T00:09:59;16.10;99.90
15937;DHT22;9163;48.818;8.976;2022-08-21T00:12:26;16.00;99.90
15937;DHT22;9163;48.818;8.976;2022-08-21T00:14:54;16.00;99.90
15937;DHT22;9163;48.818;8.976;2022-08-21T00:17:21;15.90;99.90
15937;DHT22;9163;48.818;8.976;2022-08-21T00:19:49;15.80;99.90
15937;DHT22;9163;48.818;8.976;2022-08-21T00:22:17;15.70;99.90
15937;DHT22;9163;48.818;8.976;2022-08-21T00:24:44;15.70;99.90
15937;DHT22;9163;48.818;8.976;2022-08-21T00:27:11;15.70;99.90
15937;DHT22;9163;48.818;8.976;2022-08-21T00:29:38;15.70;99.90
15937;DHT22;9163;48.818;8.976;2022-08-21T00:32:05;15.60;99.90
15937;DHT22;9163;48.818;8.976;2022-08-21T00:34:33;15.60;99.90
15937;DHT22;9163;48.818;8.976;2022-08-21T00:37:01;15.60;99.90
15937;DHT22;9163;48.818;8.976;2022-08-21T00:39:29;15.70;99.90
15937;DHT22;9163;48.818;8.976;2022-08-21T00:41:56;15.80;99.90
15937;DHT22;9163;48.818;8.976;2022-08-21T00:44:23;15.90;99.90
15937;DHT22;9163;48.818;8.976;2022-08-21T00:46:50;16.10;99.90
15937;DHT22;9163;48.818;8.976;2022-08-21T00:49:18;16.20;99.90
15937;DHT22;9163;48.818;8.976;2022-08-21T00:51:48;16.20;99.90
15937;DHT22;9163;48.818;8.976;2022-08-21T00:54:19;16.30;99.90
15937;DHT22;9163;48.818;8.976;2022-08-21T00:56:51;16.30;99.90
15937;DHT22;9163;48.818;8.976;2022-08-21T00:59:20;16.40;99.90
15937;DHT22;9163;48.818;8.976;2022-08-21T01:01:48;16.40;99.90
15937;DHT22;9163;48.818;8.976;2022-08-21T01:04:16;16.30;99.90
15937;DHT22;9163;48.818;8.976;2022-08-21T01:06:44;16.10;99.90
15937;DHT22;9163;48.818;8.976;2022-08-21T01:09:12;16.00;99.90
15937;DHT22;9163;48.818;8.976;2022-08-21T01:11:41;15.80;99.90
15937;DHT22;9163;48.818;8.976;2022-08-21T01:14:09;15.70;99.90
15937;DHT22;9163;48.818;8.976;2022-08-21T01:16:39;15.60;99.90
15937;DHT22;9163;48.818;8.976;2022-08-21T01:19:08;15.60;99.90
15937;DHT22;9163;48.818;8.976;2022-08-21T01:21:37;15.50;99.90
15937;DHT22;9163;48.818;8.976;2022-08-21T01:24:05;15.50;99.90
15937;DHT22;9163;48.818;8.976;2022-08-21T01:26:34;15.50;99.90
15937;DHT22;9163;48.818;8.976;2022-08-21T01:29:06;15.50;99.90
15937;DHT22;9163;48.818;8.976;2022-08-21T01:31:35;15.40;99.90
15937;DHT22;9163;48.818;8.976;2022-08-21T01:34:03;15.40;99.90
15937;DHT22;9163;48.818;8.976;2022-08-21T01:36:31;15.40;99.90
15937;DHT22;9163;48.818;8.976;2022-08-21T01:38:59;15.40;99.90
15937;DHT22;9163;48.818;8.976;2022-08-21T01:41:27;15.40;99.90
15937;DHT22;9163;48.818;8.976;2022-08-21T01:43:54;15.40;99.90
15937;DHT22;9163;48.818;8.976;2022-08-21T01:46:21;15.40;99.90
15937;DHT22;9163;48.818;8.976;2022-08-21T01:48:49;15.30;99.90
15937;DHT22;9163;48.818;8.976;2022-08-21T01:51:16;15.30;99.90
15937;DHT22;9163;48.818;8.976;2022-08-21T01:53:43;15.30;99.90
15937;DHT22;9163;48.818;8.976;2022-08-21T01:56:13;15.20;99.90
15937;DHT22;9163;48.818;8.976;2022-08-21T01:58:42;15.20;99.90
15937;DHT22;9163;48.818;8.976;2022-08-21T02:01:10;15.20;99.90
15937;DHT22;9163;48.818;8.976;2022-08-21T02:03:39;15.10;99.90
15937;DHT22;9163;48.818;8.976;2022-08-21T02:06:11;15.00;99.90
15937;DHT22;9163;48.818;8.976;2022-08-21T02:08:38;15.00;99.90
15937;DHT22;9163;48.818;8.976;2022-08-21T02:11:06;14.90;99.90
15937;DHT22;9163;48.818;8.976;2022-08-21T02:13:35;14.80;99.90
15937;DHT22;9163;48.818;8.976;2022-08-21T02:16:03;14.80;99.90
15937;DHT22;9163;48.818;8.976;2022-08-21T02:18:30;14.70;99.90
15937;DHT22;9163;48.818;8.976;2022-08-21T02:20:58;14.70;99.90
15937;DHT22;9163;48.818;8.976;2022-08-21T02:23:25;14.70;99.90
15937;DHT22;9163;48.818;8.976;2022-08-21T02:25:52;14.70;99.90
15937;DHT22;9163;48.818;8.976;2022-08-21T02:28:19;14.60;99.90
15937;DHT22;9163;48.818;8.976;2022-08-21T02:30:49;14.50;99.90
15937;DHT22;9163;48.818;8.976;2022-08-21T02:33:17;14.40;99.90
15937;DHT22;9163;48.818;8.976;2022-08-21T02:35:46;14.40;99.90
15937;DHT22;9163;48.818;8.976;2022-08-21T02:38:17;14.30;99.90
15937;DHT22;9163;48.818;8.976;2022-08-21T02:40:47;14.20;99.90
15937;DHT22;9163;48.818;8.976;2022-08-21T02:43:15;14.10;99.90
15937;DHT22;9163;48.818;8.976;2022-08-21T02:45:44;14.10;99.90
15937;DHT22;9163;48.818;8.976;2022-08-21T02:48:14;14.00;99.90
15937;DHT22;9163;48.818;8.976;2022-08-21T02:50:45;13.90;99.90
15937;DHT22;9163;48.818;8.976;2022-08-21T02:53:15;13.90;99.90
15937;DHT22;9163;48.818;8.976;2022-08-21T02:55:44;13.90;99.90
15937;DHT22;9163;48.818;8.976;2022-08-21T02:58:14;13.80;99.90
15937;DHT22;9163;48.818;8.976;2022-08-21T03:00:43;13.80;99.90
15937;DHT22;9163;48.818;8.976;2022-08-21T03:03:12;13.80;99.90
15937;DHT22;9163;48.818;8.976;2022-08-21T03:05:40;13.70;99.90
15937;DHT22;9163;48.818;8.976;2022-08-21T03:08:09;13.60;99.90
15937;DHT22;9163;48.818;8.976;2022-08-21T03:10:38;13.60;99.90
15937;DHT22;9163;48.818;8.976;2022-08-21T03:13:07;13.60;99.90
15937;DHT22;9163;48.818;8.976;2022-08-21T03:15:35;13.60;99.90
15937;DHT22;9163;48.818;8.976;2022-08-21T03:18:03;13.70;99.90
15937;DHT22;9163;48.818;8.976;2022-08-21T03:20:33;13.70;99.90
15937;DHT22;9163;48.818;8.976;2022-08-21T03:23:03;13.70;99.90
15937;DHT22;9163;48.818;8.976;2022-08-21T03:25:31;13.70;99.90
15937;DHT22;9163;48.818;8.976;2022-08-21T03:27:59;13.60;99.90
15937;DHT22;9163;48.818;8.976;2022-08-21T03:30:27;13.60;99.90
15937;DHT22;9163;48.818;8.976;2022-08-21T03:32:54;13.60;99.90
15937;DHT22;9163;48.818;8.976;2022-08-21T03:35:21;13.60;99.90
15937;DHT22;9163;48.818;8.976;2022-08-21T03:37:50;13.50;99.90
15937;DHT22;9163;48.818;8.976;2022-08-21T03:40:18;13.50;99.90
15937;DHT22;9163;48.818;8.976;2022-08-21T03:42:46;13.50;99.90
15937;DHT22;9163;48.818;8.976;2022-08-21T03:45:15;13.50;99.90
15937;DHT22;9163;48.818;8.976;2022-08-21T03:47:51;13.40;99.90
15937;DHT22;9163;48.818;8.976;2022-08-21T03:50:19;13.40;99.90
15937;DHT22;9163;48.818;8.976;2022-08-21T03:52:46;13.40;99.90
15937;DHT22;9163;48.818;8.976;2022-08-21T03:55:15;13.20;99.90
15937;DHT22;9163;48.818;8.976;2022-08-21T03:57:43;13.20;99.90
15937;DHT22;9163;48.818;8.976;2022-08-21T04:00:12;13.20;99.90
15937;DHT22;9163;48.818;8.976;2022-08-21T04:02:40;13.20;99.90
15937;DHT22;9163;48.818;8.976;2022-08-21T04:05:09;13.20;99.90
15937;DHT22;9163;48.818;8.976;2022-08-21T04:07:37;13.20;99.90
15937;DHT22;9163;48.818;8.976;2022-08-21T04:10:06;13.20;99.90
15937;DHT22;9163;48.818;8.976;2022-08-21T04:12:35;13.20;99.90
15937;DHT22;9163;48.818;8.976;2022-08-21T04:15:03;13.20;99.90
15937;DHT22;9163;48.818;8.976;2022-08-21T04:17:31;13.20;99.90
15937;DHT22;9163;48.818;8.976;2022-08-21T04:20:02;13.20;99.90
15937;DHT22;9163;48.818;8.976;2022-08-21T04:22:29;13.30;99.90
15937;DHT22;9163;48.818;8.976;2022-08-21T04:24:57;13.20;99.90
15937;DHT22;9163;48.818;8.976;2022-08-21T04:27:24;13.10;99.90
15937;DHT22;9163;48.818;8.976;2022-08-21T04:29:53;13.20;99.90
15937;DHT22;9163;48.818;8.976;2022-08-21T04:32:23;13.10;99.90
15937;DHT22;9163;48.818;8.976;2022-08-21T04:34:50;13.10;99.90
15937;DHT22;9163;48.818;8.976;2022-08-21T04:37:24;13.10;99.90
15937;DHT22;9163;48.818;8.976;2022-08-21T04:39:51;13.10;99.90
15937;DHT22;9163;48.818;8.976;2022-08-21T04:42:18;13.20;99.90
15937;DHT22;9163;48.818;8.976;2022-08-21T04:44:47;13.30;99.90
15937;DHT22;9163;48.818;8.976;2022-08-21T04:47:17;13.30;99.90
15937;DHT22;9163;48.818;8.976;2022-08-21T04:49:44;13.30;99.90
15937;DHT22;9163;48.818;8.976;2022-08-21T04:52:13;13.40;99.90
15937;DHT22;9163;48.818;8.976;2022-08-21T04:54:43;13.40;99.90
15937;DHT22;9163;48.818;8.976;2022-08-21T04:57:13;13.30;99.90
15937;DHT22;9163;48.818;8.976;2022-08-21T04:59:46;13.20;99.90
15937;DHT22;9163;48.818;8.976;2022-08-21T05:02:14;13.20;99.90
15937;DHT22;9163;48.818;8.976;2022-08-21T05:04:50;13.30;99.90
15937;DHT22;9163;48.818;8.976;2022-08-21T05:07:23;13.50;99.90
15937;DHT22;9163;48.818;8.976;2022-08-21T05:09:54;13.50;99.90
15937;DHT22;9163;48.818;8.976;2022-08-21T05:12:21;13.60;99.90
15937;DHT22;9163;48.818;8.976;2022-08-21T05:14:48;13.70;99.90
15937;DHT22;9163;48.818;8.976;2022-08-21T05:17:16;13.80;99.90
15937;DHT22;9163;48.818;8.976;2022-08-21T05:19:44;13.90;99.90
15937;DHT22;9163;48.818;8.976;2022-08-21T05:22:19;13.90;99.90
15937;DHT22;9163;48.818;8.976;2022-08-21T05:24:46;13.90;99.90
15937;DHT22;9163;48.818;8.976;2022-08-21T05:27:14;13.90;99.90
15937;DHT22;9163;48.818;8.976;2022-08-21T05:29:41;14.00;99.90
15937;DHT22;9163;48.818;8.976;2022-08-21T05:32:10;14.00;99.90
15937;DHT22;9163;48.818;8.976;2022-08-21T05:34:38;14.10;99.90
15937;DHT22;9163;48.818;8.976;2022-08-21T05:37:06;14.10;99.90
15937;DHT22;9163;48.818;8.976;2022-08-21T05:39:34;14.10;99.90
15937;DHT22;9163;48.818;8.976;2022-08-21T05:42:02;14.10;99.90
15937;DHT22;9163;48.818;8.976;2022-08-21T05:44:29;14.30;99.90
15937;DHT22;9163;48.818;8.976;2022-08-21T05:47:02;14.40;99.90
15937;DHT22;9163;48.818;8.976;2022-08-21T05:49:30;14.50;99.90
15937;DHT22;9163;48.818;8.976;2022-08-21T05:51:57;14.40;99.90
15937;DHT22;9163;48.818;8.976;2022-08-21T05:54:26;14.50;99.90
15937;DHT22;9163;48.818;8.976;2022-08-21T05:56:53;14.60;99.90
15937;DHT22;9163;48.818;8.976;2022-08-21T05:59:20;14.70;99.90
15937;DHT22;9163;48.818;8.976;2022-08-21T06:01:48;14.80;99.90
15937;DHT22;9163;48.818;8.976;2022-08-21T06:04:18;15.00;99.90
15937;DHT22;9163;48.818;8.976;2022-08-21T06:06:46;15.00;99.90
15937;DHT22;9163;48.818;8.976;2022-08-21T06:09:14;15.20;99.90
15937;DHT22;9163;48.818;8.976;2022-08-21T06:11:42;15.20;99.90
15937;DHT22;9163;48.818;8.976;2022-08-21T06:14:10;15.30;99.90
15937;DHT22;9163;48.818;8.976;2022-08-21T06:16:40;15.40;99.90
15937;DHT22;9163;48.818;8.976;2022-08-21T06:19:11;15.50;99.90
15937;DHT22;9163;48.818;8.976;2022-08-21T06:21:38;15.50;99.90
15937;DHT22;9163;48.818;8.976;2022-08-21T06:24:06;15.60;99.90
15937;DHT22;9163;48.818;8.976;2022-08-21T06:26:33;15.50;99.90
15937;DHT22;9163;48.818;8.976;2022-08-21T06:29:02;15.70;99.90
15937;DHT22;9163;48.818;8.976;2022-08-21T06:31:32;15.80;99.90
15937;DHT22;9163;48.818;8.976;2022-08-21T06:33:59;16.00;99.90
15937;DHT22;9163;48.818;8.976;2022-08-21T06:36:26;16.10;99.90
15937;DHT22;9163;48.818;8.976;2022-08-21T06:38:54;16.40;99.90
15937;DHT22;9163;48.818;8.976;2022-08-21T06:41:21;16.50;99.90
15937;DHT22;9163;48.818;8.976;2022-08-21T06:43:48;16.70;99.90
15937;DHT22;9163;48.818;8.976;2022-08-21T06:46:17;16.90;99.90
15937;DHT22;9163;48.818;8.976;2022-08-21T06:48:44;17.10;99.90
15937;DHT22;9163;48.818;8.976;2022-08-21T06:51:12;17.10;99.90
15937;DHT22;9163;48.818;8.976;2022-08-21T06:53:39;17.40;99.90
15937;DHT22;9163;48.818;8.976;2022-08-21T06:56:06;17.60;99.90
15937;DHT22;9163;48.818;8.976;2022-08-21T06:58:33;17.70;99.90
15937;DHT22;9163;48.818;8.976;2022-08-21T07:01:01;17.90;99.90
15937;DHT22;9163;48.818;8.976;2022-08-21T07:03:31;18.00;99.90
15937;DHT22;9163;48.818;8.976;2022-08-21T07:05:59;18.10;99.90
15937;DHT22;9163;48.818;8.976;2022-08-21T07:08:27;18.40;99.90
15937;DHT22;9163;48.818;8.976;2022-08-21T07:10:57;18.60;99.90
15937;DHT22;9163;48.818;8.976;2022-08-21T07:13:25;18.60;99.90
15937;DHT22;9163;48.818;8.976;2022-08-21T07:15:52;18.90;99.90
15937;DHT22;9163;48.818;8.976;2022-08-21T07:18:19;19.00;99.90
15937;DHT22;9163;48.818;8.976;2022-08-21T07:20:48;19.20;99.90
15937;DHT22;9163;48.818;8.976;2022-08-21T07:23:20;19.50;99.90
15937;DHT22;9163;48.818;8.976;2022-08-21T07:25:48;19.80;99.90
15937;DHT22;9163;48.818;8.976;2022-08-21T07:28:16;20.20;99.90
15937;DHT22;9163;48.818;8.976;2022-08-21T07:30:43;20.50;99.90
15937;DHT22;9163;48.818;8.976;2022-08-21T07:38:58;20.90;99.90
15937;DHT22;9163;48.818;8.976;2022-08-21T07:41:28;21.00;99.90
15937;DHT22;9163;48.818;8.976;2022-08-21T07:43:55;21.10;99.90
15937;DHT22;9163;48.818;8.976;2022-08-21T07:46:23;21.40;99.90
15937;DHT22;9163;48.818;8.976;2022-08-21T07:48:52;21.60;99.90
15937;DHT22;9163;48.818;8.976;2022-08-21T07:51:23;22.10;99.90
15937;DHT22;9163;48.818;8.976;2022-08-21T07:53:55;22.30;99.90
15937;DHT22;9163;48.818;8.976;2022-08-21T07:56:24;22.50;99.90
15937;DHT22;9163;48.818;8.976;2022-08-21T07:58:52;22.50;99.90
15937;DHT22;9163;48.818;8.976;2022-08-21T08:01:20;22.60;99.90
15937;DHT22;9163;48.818;8.976;2022-08-21T08:03:47;22.50;99.90
15937;DHT22;9163;48.818;8.976;2022-08-21T08:06:15;22.50;99.90
15937;DHT22;9163;48.818;8.976;2022-08-21T08:08:44;22.60;99.90
15937;DHT22;9163;48.818;8.976;2022-08-21T08:11:13;22.90;99.90
15937;DHT22;9163;48.818;8.976;2022-08-21T08:13:45;23.30;99.90
15937;DHT22;9163;48.818;8.976;2022-08-21T08:16:13;23.50;99.90
15937;DHT22;9163;48.818;8.976;2022-08-21T08:18:40;23.50;99.90
15937;DHT22;9163;48.818;8.976;2022-08-21T08:21:09;23.60;99.90
15937;DHT22;9163;48.818;8.976;2022-08-21T08:23:37;23.80;99.90
15937;DHT22;9163;48.818;8.976;2022-08-21T08:26:04;24.30;99.90
15937;DHT22;9163;48.818;8.976;2022-08-21T08:28:32;24.40;99.90
15937;DHT22;9163;48.818;8.976;2022-08-21T08:31:01;24.30;99.90
15937;DHT22;9163;48.818;8.976;2022-08-21T08:33:28;24.40;99.90
15937;DHT22;9163;48.818;8.976;2022-08-21T08:35:56;24.60;99.90
15937;DHT22;9163;48.818;8.976;2022-08-21T08:38:25;24.70;99.90
15937;DHT22;9163;48.818;8.976;2022-08-21T08:40:58;25.20;99.90
15937;DHT22;9163;48.818;8.976;2022-08-21T08:43:28;25.60;99.90
15937;DHT22;9163;48.818;8.976;2022-08-21T08:45:57;25.80;99.90
15937;DHT22;9163;48.818;8.976;2022-08-21T08:48:39;26.00;99.90
15937;DHT22;9163;48.818;8.976;2022-08-21T08:51:15;26.20;99.90
15937;DHT22;9163;48.818;8.976;2022-08-21T08:53:50;26.40;99.90
15937;DHT22;9163;48.818;8.976;2022-08-21T08:56:22;26.30;99.90
15937;DHT22;9163;48.818;8.976;2022-08-21T08:58:52;26.60;99.90
15937;DHT22;9163;48.818;8.976;2022-08-21T09:01:20;26.20;99.90
15937;DHT22;9163;48.818;8.976;2022-08-21T09:03:49;26.00;99.90
15937;DHT22;9163;48.818;8.976;2022-08-21T09:06:28;25.80;99.90
15937;DHT22;9163;48.818;8.976;2022-08-21T09:09:04;25.60;99.90
15937;DHT22;9163;48.818;8.976;2022-08-21T09:11:44;26.10;99.90
15937;DHT22;9163;48.818;8.976;2022-08-21T09:14:16;26.70;99.90
15937;DHT22;9163;48.818;8.976;2022-08-21T09:16:55;27.00;99.90
15937;DHT22;9163;48.818;8.976;2022-08-21T09:19:35;26.80;99.90
15937;DHT22;9163;48.818;8.976;2022-08-21T09:22:09;27.10;99.90
15937;DHT22;9163;48.818;8.976;2022-08-21T09:24:46;27.20;99.90
15937;DHT22;9163;48.818;8.976;2022-08-21T09:27:17;27.70;99.90
15937;DHT22;9163;48.818;8.976;2022-08-21T09:29:46;28.10;99.90
15937;DHT22;9163;48.818;8.976;2022-08-21T09:32:18;28.50;99.90
15937;DHT22;9163;48.818;8.976;2022-08-21T09:34:58;28.70;99.90
15937;DHT22;9163;48.818;8.976;2022-08-21T09:37:26;29.00;99.90
15937;DHT22;9163;48.818;8.976;2022-08-21T09:39:55;29.50;99.90
15937;DHT22;9163;48.818;8.976;2022-08-21T09:42:25;29.90;99.90
15937;DHT22;9163;48.818;8.976;2022-08-21T09:45:07;29.30;99.90
15937;DHT22;9163;48.818;8.976;2022-08-21T09:47:34;29.60;99.90
15937;DHT22;9163;48.818;8.976;2022-08-21T09:50:14;30.10;99.90
15937;DHT22;9163;48.818;8.976;2022-08-21T09:52:50;30.50;99.90
15937;DHT22;9163;48.818;8.976;2022-08-21T09:55:33;30.70;99.90
15937;DHT22;9163;48.818;8.976;2022-08-21T09:58:20;30.90;99.90
15937;DHT22;9163;48.818;8.976;2022-08-21T10:00:57;31.30;99.90
15937;DHT22;9163;48.818;8.976;2022-08-21T10:03:25;31.60;98.80
15937;DHT22;9163;48.818;8.976;2022-08-21T10:05:56;31.40;99.90
15937;DHT22;9163;48.818;8.976;2022-08-21T10:08:26;31.50;98.70
15937;DHT22;9163;48.818;8.976;2022-08-21T10:10:57;31.40;98.20
15937;DHT22;9163;48.818;8.976;2022-08-21T10:13:40;31.20;96.70
15937;DHT22;9163;48.818;8.976;2022-08-21T10:16:20;31.00;97.30
15937;DHT22;9163;48.818;8.976;2022-08-21T10:19:00;30.00;96.70
15937;DHT22;9163;48.818;8.976;2022-08-21T10:21:34;29.20;96.60
15937;DHT22;9163;48.818;8.976;2022-08-21T10:24:08;28.80;98.40
15937;DHT22;9163;48.818;8.976;2022-08-21T10:26:47;29.00;97.50
15937;DHT22;9163;48.818;8.976;2022-08-21T10:29:28;28.60;97.90
15937;DHT22;9163;48.818;8.976;2022-08-21T10:32:02;29.00;98.60
15937;DHT22;9163;48.818;8.976;2022-08-21T10:34:39;28.90;97.60
15937;DHT22;9163;48.818;8.976;2022-08-21T10:37:18;28.70;98.40
15937;DHT22;9163;48.818;8.976;2022-08-21T10:39:57;29.90;98.40
15937;DHT22;9163;48.818;8.976;2022-08-21T10:42:35;30.60;97.90
15937;DHT22;9163;48.818;8.976;2022-08-21T10:45:11;30.80;97.00
15937;DHT22;9163;48.818;8.976;2022-08-21T10:47:44;31.10;94.60
15937;DHT22;9163;48.818;8.976;2022-08-21T10:50:22;31.50;95.00
15937;DHT22;9163;48.818;8.976;2022-08-21T10:53:09;31.50;94.40
15937;DHT22;9163;48.818;8.976;2022-08-21T10:55:43;31.50;94.80
15937;DHT22;9163;48.818;8.976;2022-08-21T10:58:16;31.30;92.70
15937;DHT22;9163;48.818;8.976;2022-08-21T11:00:47;30.10;94.40
15937;DHT22;9163;48.818;8.976;2022-08-21T11:03:19;30.30;95.00
15937;DHT22;9163;48.818;8.976;2022-08-21T11:05:51;30.80;94.00
15937;DHT22;9163;48.818;8.976;2022-08-21T11:08:23;31.70;93.70
15937;DHT22;9163;48.818;8.976;2022-08-21T11:10:58;32.30;93.20
15937;DHT22;9163;48.818;8.976;2022-08-21T11:13:32;32.70;92.80
15937;DHT22;9163;48.818;8.976;2022-08-21T11:16:05;32.90;92.60
15937;DHT22;9163;48.818;8.976;2022-08-21T11:18:36;32.40;88.10
15937;DHT22;9163;48.818;8.976;2022-08-21T11:21:15;32.00;89.20
15937;DHT22;9163;48.818;8.976;2022-08-21T11:23:54;31.10;89.20
15937;DHT22;9163;48.818;8.976;2022-08-21T11:26:29;30.90;90.60
15937;DHT22;9163;48.818;8.976;2022-08-21T11:29:00;30.10;91.20
15937;DHT22;9163;48.818;8.976;2022-08-21T11:31:39;29.60;91.00
15937;DHT22;9163;48.818;8.976;2022-08-21T11:34:19;29.60;91.00
15937;DHT22;9163;48.818;8.976;2022-08-21T11:36:55;29.00;91.40
15937;DHT22;9163;48.818;8.976;2022-08-21T11:39:32;28.70;92.70
15937;DHT22;9163;48.818;8.976;2022-08-21T11:42:06;29.20;93.20
15937;DHT22;9163;48.818;8.976;2022-08-21T11:44:47;29.50;91.80
15937;DHT22;9163;48.818;8.976;2022-08-21T11:47:21;29.10;91.70
15937;DHT22;9163;48.818;8.976;2022-08-21T11:50:02;28.60;92.00
15937;DHT22;9163;48.818;8.976;2022-08-21T11:52:37;28.60;94.00
15937;DHT22;9163;48.818;8.976;2022-08-21T11:55:11;29.10;92.60
15937;DHT22;9163;48.818;8.976;2022-08-21T11:57:46;29.30;92.90
15937;DHT22;9163;48.818;8.976;2022-08-21T12:00:22;29.60;92.50
15937;DHT22;9163;48.818;8.976;2022-08-21T12:02:53;30.40;92.20
15937;DHT22;9163;48.818;8.976;2022-08-21T12:05:26;30.30;91.10
15937;DHT22;9163;48.818;8.976;2022-08-21T12:08:04;31.00;92.20
15937;DHT22;9163;48.818;8.976;2022-08-21T12:10:35;32.00;91.60
15937;DHT22;9163;48.818;8.976;2022-08-21T12:13:09;31.60;89.30
15937;DHT22;9163;48.818;8.976;2022-08-21T12:15:37;31.60;89.10
15937;DHT22;9163;48.818;8.976;2022-08-21T12:18:07;31.50;87.60
15937;DHT22;9163;48.818;8.976;2022-08-21T12:21:01;32.10;90.40
15937;DHT22;9163;48.818;8.976;2022-08-21T12:23:31;33.30;89.50
15937;DHT22;9163;48.818;8.976;2022-08-21T12:26:03;34.10;90.00
15937;DHT22;9163;48.818;8.976;2022-08-21T12:28:36;33.90;84.10
15937;DHT22;9163;48.818;8.976;2022-08-21T12:31:04;33.80;84.20
15937;DHT22;9163;48.818;8.976;2022-08-21T12:33:34;34.40;82.40
15937;DHT22;9163;48.818;8.976;2022-08-21T12:36:06;34.40;79.20
15937;DHT22;9163;48.818;8.976;2022-08-21T12:38:47;33.20;79.10
15937;DHT22;9163;48.818;8.976;2022-08-21T12:41:20;33.20;79.90
15937;DHT22;9163;48.818;8.976;2022-08-21T12:43:51;33.40;82.30
15937;DHT22;9163;48.818;8.976;2022-08-21T12:46:22;34.20;81.10
15937;DHT22;9163;48.818;8.976;2022-08-21T12:48:54;34.50;78.20
15937;DHT22;9163;48.818;8.976;2022-08-21T12:51:27;33.80;76.10
15937;DHT22;9163;48.818;8.976;2022-08-21T12:53:57;33.20;77.50
15937;DHT22;9163;48.818;8.976;2022-08-21T12:56:29;33.00;77.50
15937;DHT22;9163;48.818;8.976;2022-08-21T12:59:01;33.50;80.30
15937;DHT22;9163;48.818;8.976;2022-08-21T13:01:33;34.00;75.50
15937;DHT22;9163;48.818;8.976;2022-08-21T13:04:03;33.90;73.60
15937;DHT22;9163;48.818;8.976;2022-08-21T13:06:36;34.30;76.70
15937;DHT22;9163;48.818;8.976;2022-08-21T13:09:06;34.50;77.40
15937;DHT22;9163;48.818;8.976;2022-08-21T13:11:36;35.10;76.40
15937;DHT22;9163;48.818;8.976;2022-08-21T13:14:06;35.10;75.70
15937;DHT22;9163;48.818;8.976;2022-08-21T13:16:36;35.40;75.10
15937;DHT22;9163;48.818;8.976;2022-08-21T13:19:06;35.20;74.30
15937;DHT22;9163;48.818;8.976;2022-08-21T13:21:38;34.80;73.80
15937;DHT22;9163;48.818;8.976;2022-08-21T13:24:14;34.40;75.40
15937;DHT22;9163;48.818;8.976;2022-08-21T13:26:43;34.60;74.30
15937;DHT22;9163;48.818;8.976;2022-08-21T13:29:13;34.20;72.10
15937;DHT22;9163;48.818;8.976;2022-08-21T13:31:46;34.00;73.10
15937;DHT22;9163;48.818;8.976;2022-08-21T13:34:14;33.90;74.30
15937;DHT22;9163;48.818;8.976;2022-08-21T13:36:44;33.40;70.80
15937;DHT22;9163;48.818;8.976;2022-08-21T13:39:16;32.80;71.90
15937;DHT22;9163;48.818;8.976;2022-08-21T13:41:49;31.70;72.70
15937;DHT22;9163;48.818;8.976;2022-08-21T13:44:18;31.80;75.60
15937;DHT22;9163;48.818;8.976;2022-08-21T13:46:48;32.50;73.80
15937;DHT22;9163;48.818;8.976;2022-08-21T13:49:19;33.10;73.30
15937;DHT22;9163;48.818;8.976;2022-08-21T13:51:48;33.10;70.30
15937;DHT22;9163;48.818;8.976;2022-08-21T13:54:22;31.50;70.50
15937;DHT22;9163;48.818;8.976;2022-08-21T13:56:52;31.60;72.60
15937;DHT22;9163;48.818;8.976;2022-08-21T13:59:28;30.40;72.00
15937;DHT22;9163;48.818;8.976;2022-08-21T14:01:58;30.90;73.40
15937;DHT22;9163;48.818;8.976;2022-08-21T14:04:32;30.80;74.90
15937;DHT22;9163;48.818;8.976;2022-08-21T14:07:01;31.20;76.70
15937;DHT22;9163;48.818;8.976;2022-08-21T14:09:32;31.40;76.30
15937;DHT22;9163;48.818;8.976;2022-08-21T14:12:19;31.80;75.50
15937;DHT22;9163;48.818;8.976;2022-08-21T14:14:51;31.80;75.40
15937;DHT22;9163;48.818;8.976;2022-08-21T14:17:27;31.00;72.00
15937;DHT22;9163;48.818;8.976;2022-08-21T14:19:55;30.60;74.10
15937;DHT22;9163;48.818;8.976;2022-08-21T14:22:32;30.30;75.30
15937;DHT22;9163;48.818;8.976;2022-08-21T14:25:01;30.10;77.10
15937;DHT22;9163;48.818;8.976;2022-08-21T14:27:34;30.10;78.00
15937;DHT22;9163;48.818;8.976;2022-08-21T14:30:10;30.10;77.70
15937;DHT22;9163;48.818;8.976;2022-08-21T14:32:39;30.00;76.10
15937;DHT22;9163;48.818;8.976;2022-08-21T14:35:08;30.20;77.70
15937;DHT22;9163;48.818;8.976;2022-08-21T14:37:35;30.20;77.90
15937;DHT22;9163;48.818;8.976;2022-08-21T14:40:03;30.20;77.40
15937;DHT22;9163;48.818;8.976;2022-08-21T14:42:32;30.10;77.90
15937;DHT22;9163;48.818;8.976;2022-08-21T14:45:02;30.20;77.60
15937;DHT22;9163;48.818;8.976;2022-08-21T14:47:32;30.40;78.20
15937;DHT22;9163;48.818;8.976;2022-08-21T14:49:59;30.80;75.70
15937;DHT22;9163;48.818;8.976;2022-08-21T14:52:27;30.90;75.60
15937;DHT22;9163;48.818;8.976;2022-08-21T14:54:54;31.00;72.20
15937;DHT22;9163;48.818;8.976;2022-08-21T14:57:22;31.20;72.90
15937;DHT22;9163;48.818;8.976;2022-08-21T14:59:51;31.00;72.70
15937;DHT22;9163;48.818;8.976;2022-08-21T15:02:18;31.20;74.40
15937;DHT22;9163;48.818;8.976;2022-08-21T15:04:45;31.50;75.30
15937;DHT22;9163;48.818;8.976;2022-08-21T15:07:12;31.50;74.40
15937;DHT22;9163;48.818;8.976;2022-08-21T15:09:40;31.20;70.70
15937;DHT22;9163;48.818;8.976;2022-08-21T15:12:07;31.20;72.60
15937;DHT22;9163;48.818;8.976;2022-08-21T15:14:38;31.20;71.90
15937;DHT22;9163;48.818;8.976;2022-08-21T15:17:08;31.30;73.60
15937;DHT22;9163;48.818;8.976;2022-08-21T15:19:36;31.50;74.30
15937;DHT22;9163;48.818;8.976;2022-08-21T15:22:04;31.40;74.80
15937;DHT22;9163;48.818;8.976;2022-08-21T15:24:32;31.60;74.00
15937;DHT22;9163;48.818;8.976;2022-08-21T15:27:01;31.80;73.30
15937;DHT22;9163;48.818;8.976;2022-08-21T15:29:29;32.10;74.20
15937;DHT22;9163;48.818;8.976;2022-08-21T15:31:59;32.30;73.00
15937;DHT22;9163;48.818;8.976;2022-08-21T15:34:29;32.30;72.20
15937;DHT22;9163;48.818;8.976;2022-08-21T15:36:58;32.30;72.30
15937;DHT22;9163;48.818;8.976;2022-08-21T15:39:26;32.30;73.70
15937;DHT22;9163;48.818;8.976;2022-08-21T15:41:53;32.40;73.30
15937;DHT22;9163;48.818;8.976;2022-08-21T15:44:20;32.40;72.40
15937;DHT22;9163;48.818;8.976;2022-08-21T15:46:48;32.50;73.00
15937;DHT22;9163;48.818;8.976;2022-08-21T15:49:15;32.50;73.30
15937;DHT22;9163;48.818;8.976;2022-08-21T15:51:44;32.30;72.10
15937;DHT22;9163;48.818;8.976;2022-08-21T15:54:11;32.20;72.40
15937;DHT22;9163;48.818;8.976;2022-08-21T15:56:41;32.20;70.70
15937;DHT22;9163;48.818;8.976;2022-08-21T15:59:14;32.20;72.70
15937;DHT22;9163;48.818;8.976;2022-08-21T16:01:42;31.70;69.10
15937;DHT22;9163;48.818;8.976;2022-08-21T16:04:10;31.30;69.60
15937;DHT22;9163;48.818;8.976;2022-08-21T16:06:39;31.30;71.60
15937;DHT22;9163;48.818;8.976;2022-08-21T16:09:08;31.30;70.80